KSFQ

Suffolk Executive Airport

Suffolk, Virginia, USA
METAR KSFQ 200055Z AUTO 24003KT 10SM CLR 05/M08 A3013 RMK AO2 T00461080
Observed Flight Rules
Jan-20 @ 00:55 UTC (22 minutes ago) Visual Flight Rules
Wind Visibility Clouds
240° at 3 knots 10 miles
  • Clear skies
Temperatures Readings
Current 5°C / 41°F
Dewpoint -8°C / 18°F
Humidity 39%
Altimeter 30.13" Hg
Pressure 1020 hPa
Elevation 22
METAR KSFQ 200055Z AUTO 24003KT 10SM CLR 05/M08 A3013 RMK AO2 T00461080
Observed Flight Rules
Jan-20 @ 00:55 UTC
(22 minutes ago)
VFR
Wind Visibility
240° at 3 knots 10 miles
Clouds
  • Clear skies
Temperature Dewpoint
5°C / 41°F -8°C / 18°F
Humidity Altimeter Pressure
39% 30.13" Hg 1020 hPa